createdAt,value
2019-02-19T00:00:06.499Z,16.17
2019-02-19T00:03:10.121Z,16.33
2019-02-19T00:06:13.693Z,15.10
2019-02-19T00:09:17.249Z,13.80
2019-02-19T00:12:20.815Z,14.13
2019-02-19T00:15:24.372Z,15.63
2019-02-19T00:18:27.942Z,14.13
2019-02-19T00:21:31.508Z,13.70
2019-02-19T00:24:35.161Z,14.70
2019-02-19T00:27:38.725Z,14.07
2019-02-19T00:30:42.300Z,14.53
2019-02-19T00:33:45.874Z,15.03
2019-02-19T00:36:49.691Z,13.40
2019-02-19T00:39:53.547Z,16.07
2019-02-19T00:42:57.112Z,13.60
2019-02-19T00:46:00.775Z,12.47
2019-02-19T00:49:04.899Z,13.30
2019-02-19T00:52:08.563Z,12.27
2019-02-19T00:55:12.120Z,13.13
2019-02-19T00:58:15.679Z,12.13
2019-02-19T01:01:19.234Z,12.77
2019-02-19T01:04:23.126Z,12.90
2019-02-19T01:07:26.750Z,10.83
2019-02-19T01:10:30.380Z,15.07
2019-02-19T01:13:33.958Z,12.13
2019-02-19T01:16:37.835Z,11.63
2019-02-19T01:19:41.473Z,13.37
2019-02-19T01:22:45.337Z,12.80
2019-02-19T01:25:48.957Z,11.43
2019-02-19T01:28:52.633Z,11.03
2019-02-19T01:31:56.264Z,10.70
2019-02-19T01:34:59.831Z,10.30
2019-02-19T01:38:04.886Z,10.83
2019-02-19T01:41:08.801Z,12.43
2019-02-19T01:44:12.374Z,11.57
2019-02-19T01:47:16.528Z,10.20
2019-02-19T01:50:20.106Z,10.37
2019-02-19T01:53:23.910Z,9.27
2019-02-19T01:56:27.476Z,10.50
2019-02-19T01:59:31.453Z,10.13
2019-02-19T02:02:35.020Z,10.27
2019-02-19T02:05:38.585Z,9.70
2019-02-19T02:08:42.150Z,9.57
2019-02-19T02:11:45.970Z,11.67
2019-02-19T02:14:49.812Z,11.90
2019-02-19T02:17:53.362Z,10.77
2019-02-19T02:20:56.926Z,10.30
2019-02-19T02:24:00.492Z,10.33
2019-02-19T02:27:04.364Z,9.30
2019-02-19T02:30:08.180Z,9.20
2019-02-19T02:33:11.752Z,9.33
2019-02-19T02:36:15.642Z,10.13
2019-02-19T02:39:19.189Z,9.37
2019-02-19T02:42:22.797Z,8.90
2019-02-19T02:45:26.598Z,12.90
2019-02-19T02:48:30.751Z,9.20
2019-02-19T02:51:34.309Z,8.37
2019-02-19T02:54:38.115Z,11.63
2019-02-19T02:57:41.659Z,11.37
2019-02-19T03:00:45.218Z,8.53
2019-02-19T03:03:48.762Z,8.17
2019-02-19T03:07:02.243Z,10.83
2019-02-19T03:10:06.121Z,9.27
2019-02-19T03:13:09.670Z,8.23
2019-02-19T03:16:13.550Z,9.70
2019-02-19T03:19:17.368Z,8.27
2019-02-19T03:22:21.027Z,7.93
2019-02-19T03:25:25.167Z,9.37
2019-02-19T03:28:28.715Z,12.17
2019-02-19T03:31:32.271Z,11.87
2019-02-19T03:34:35.816Z,8.50
2019-02-19T03:37:39.379Z,10.63
2019-02-19T03:40:42.936Z,9.17
2019-02-19T03:43:46.506Z,9.20
2019-02-19T03:46:50.306Z,8.63
2019-02-19T03:49:53.852Z,10.33
2019-02-19T03:52:57.479Z,9.00
2019-02-19T03:56:01.046Z,8.73
2019-02-19T03:59:05.008Z,9.53
2019-02-19T04:02:08.575Z,9.23
2019-02-19T04:05:12.428Z,8.03
2019-02-19T04:08:16.299Z,8.00
2019-02-19T04:11:19.854Z,9.03
2019-02-19T04:14:23.401Z,7.23
2019-02-19T04:17:27.280Z,9.03
2019-02-19T04:20:30.881Z,8.77
2019-02-19T04:23:34.432Z,7.07
2019-02-19T04:26:38.048Z,8.40
2019-02-19T04:29:42.186Z,8.27
2019-02-19T04:32:45.747Z,8.73
2019-02-19T04:35:49.306Z,9.60
2019-02-19T04:38:52.844Z,9.83
2019-02-19T04:41:56.475Z,10.23
2019-02-19T04:45:00.063Z,8.03
2019-02-19T04:48:03.775Z,8.30
2019-02-19T04:51:07.391Z,7.57
2019-02-19T04:54:10.953Z,7.10
2019-02-19T04:57:14.831Z,8.00
2019-02-19T05:00:18.378Z,9.77
2019-02-19T05:03:21.928Z,8.67
2019-02-19T05:06:25.505Z,7.13
2019-02-19T05:09:29.058Z,7.13
2019-02-19T05:12:32.598Z,6.93
2019-02-19T05:15:36.460Z,6.03
2019-02-19T05:18:40.010Z,9.57
2019-02-19T05:21:43.558Z,9.90
2019-02-19T05:24:47.124Z,47.37
2019-02-19T05:27:50.791Z,52.53
2019-02-19T05:30:55.023Z,32.07
2019-02-19T05:33:58.583Z,27.20
2019-02-19T05:37:02.131Z,28.27
2019-02-19T05:40:05.910Z,23.53
2019-02-19T05:43:09.468Z,28.10
2019-02-19T05:46:13.036Z,24.73
2019-02-19T05:49:16.597Z,20.63
2019-02-19T05:52:20.149Z,20.03
2019-02-19T05:55:23.706Z,28.37
2019-02-19T05:58:27.548Z,38.03
2019-02-19T06:01:31.413Z,58.87
2019-02-19T06:04:35.355Z,72.80
2019-02-19T06:07:38.917Z,63.77
2019-02-19T06:10:44.195Z,57.97
2019-02-19T06:13:47.872Z,51.63
2019-02-19T06:16:58.345Z,49.13
2019-02-19T06:19:56.957Z,43.20
2019-02-19T06:23:00.746Z,41.50
2019-02-19T06:26:04.299Z,43.03
2019-02-19T06:29:07.856Z,40.63
2019-02-19T06:32:11.417Z,41.07
2019-02-19T06:35:14.982Z,39.43
2019-02-19T06:38:18.536Z,35.50
2019-02-19T06:41:22.096Z,38.17
2019-02-19T06:44:26.228Z,35.80
2019-02-19T06:47:29.877Z,37.13
2019-02-19T06:50:33.447Z,34.53
2019-02-19T06:53:37.274Z,32.53
2019-02-19T06:56:40.833Z,32.03
2019-02-19T06:59:44.457Z,28.77
2019-02-19T07:03:09.761Z,31.13
2019-02-19T07:06:13.679Z,30.00
2019-02-19T07:09:17.235Z,29.17
2019-02-19T07:12:20.800Z,28.87
2019-02-19T07:15:24.462Z,26.30
2019-02-19T07:18:28.303Z,25.30
2019-02-19T07:21:32.195Z,30.07
2019-02-19T07:24:35.997Z,28.80
2019-02-19T07:27:39.805Z,22.70
2019-02-19T07:30:43.372Z,23.10
2019-02-19T07:33:47.172Z,26.43
2019-02-19T07:36:51.026Z,23.87
2019-02-19T07:39:55.140Z,22.83
2019-02-19T07:42:58.696Z,21.90
2019-02-19T07:46:02.573Z,21.43
2019-02-19T07:49:06.496Z,22.43
2019-02-19T07:52:10.306Z,20.50
2019-02-19T07:55:14.234Z,20.77
2019-02-19T07:58:17.798Z,22.33
2019-02-19T08:01:21.366Z,20.87
2019-02-19T08:04:24.925Z,19.27
2019-02-19T08:07:28.486Z,21.57
2019-02-19T08:10:32.047Z,17.07
2019-02-19T08:13:35.616Z,19.33
2019-02-19T08:16:39.500Z,20.07
2019-02-19T08:19:43.058Z,17.80
2019-02-19T08:22:46.713Z,17.60
2019-02-19T08:25:50.266Z,18.57
2019-02-19T08:28:53.831Z,15.43
2019-02-19T08:31:57.395Z,17.87
2019-02-19T08:35:00.974Z,16.23
2019-02-19T08:38:05.820Z,17.33
2019-02-19T08:41:09.632Z,15.37
2019-02-19T08:44:13.271Z,16.30
2019-02-19T08:47:17.126Z,17.07
2019-02-19T08:50:20.941Z,17.83
2019-02-19T08:53:24.504Z,17.07
2019-02-19T08:56:28.356Z,17.57
2019-02-19T08:59:31.920Z,19.97
2019-02-19T09:02:35.800Z,13.40
2019-02-19T09:05:39.868Z,14.50
2019-02-19T09:08:43.730Z,16.17
2019-02-19T09:11:47.324Z,12.77
2019-02-19T09:14:51.202Z,16.57
2019-02-19T09:17:55.091Z,12.33
2019-02-19T09:20:58.949Z,13.80
2019-02-19T09:24:09.205Z,12.50
2019-02-19T09:27:07.787Z,13.17
2019-02-19T09:30:11.932Z,13.53
2019-02-19T09:33:15.493Z,12.27
2019-02-19T09:36:19.310Z,11.27
2019-02-19T09:39:23.190Z,12.17
2019-02-19T09:42:27.325Z,11.50
2019-02-19T09:45:30.872Z,11.43
2019-02-19T09:48:34.436Z,12.13
2019-02-19T09:51:37.982Z,13.03
2019-02-19T09:54:41.594Z,11.73
2019-02-19T09:57:45.454Z,11.13
2019-02-19T10:00:49.035Z,11.50
2019-02-19T10:03:52.564Z,12.63
2019-02-19T10:06:56.123Z,10.13
2019-02-19T10:09:59.684Z,8.93
2019-02-19T10:13:03.556Z,12.23
2019-02-19T10:16:07.102Z,10.70
2019-02-19T10:19:10.660Z,11.97
2019-02-19T10:22:14.517Z,11.13
2019-02-19T10:25:18.074Z,10.87
2019-02-19T10:28:22.187Z,10.87
2019-02-19T10:31:25.985Z,10.67
2019-02-19T10:34:29.810Z,15.40
2019-02-19T10:37:33.355Z,9.40
2019-02-19T10:40:36.911Z,9.13
2019-02-19T10:43:40.462Z,8.27
2019-02-19T10:46:44.337Z,9.97
2019-02-19T10:49:48.004Z,11.77
2019-02-19T10:52:51.869Z,9.30
2019-02-19T10:55:55.754Z,7.77
2019-02-19T10:58:59.552Z,10.00
2019-02-19T11:02:03.172Z,8.33
2019-02-19T11:05:06.936Z,10.20
2019-02-19T11:08:10.804Z,8.60
2019-02-19T11:11:14.355Z,9.03
2019-02-19T11:14:17.915Z,9.90
2019-02-19T11:17:21.473Z,11.40
2019-02-19T11:20:25.031Z,10.17
2019-02-19T11:23:28.586Z,7.80
2019-02-19T11:26:32.140Z,9.30
2019-02-19T11:29:35.695Z,7.87
2019-02-19T11:32:39.510Z,9.10
2019-02-19T11:35:43.344Z,7.70
2019-02-19T11:38:46.893Z,9.17
2019-02-19T11:41:50.445Z,9.80
2019-02-19T11:44:54.001Z,6.80
2019-02-19T11:47:57.973Z,8.00
2019-02-19T11:51:02.155Z,8.47
2019-02-19T11:54:05.979Z,7.63
2019-02-19T11:57:09.531Z,8.20
2019-02-19T12:00:16.568Z,7.80
2019-02-19T12:03:20.107Z,6.90
2019-02-19T12:06:23.653Z,8.10
2019-02-19T12:09:27.809Z,7.50
2019-02-19T12:12:31.680Z,7.50
2019-02-19T12:15:35.692Z,7.07
2019-02-19T12:18:45.852Z,6.63
2019-02-19T12:21:44.888Z,6.60
2019-02-19T12:24:48.797Z,8.53
2019-02-19T12:27:52.350Z,6.87
2019-02-19T12:30:56.184Z,7.53
2019-02-19T12:33:59.724Z,7.23
2019-02-19T12:37:03.273Z,6.50
2019-02-19T12:40:07.784Z,8.00
2019-02-19T12:43:11.324Z,6.83
2019-02-19T12:46:14.875Z,9.63
2019-02-19T12:49:18.721Z,6.40
2019-02-19T12:52:22.539Z,6.90
2019-02-19T12:55:26.086Z,7.50
2019-02-19T12:58:29.943Z,6.03
2019-02-19T13:01:33.501Z,8.07
2019-02-19T13:04:37.049Z,5.50
2019-02-19T13:07:40.939Z,6.03
2019-02-19T13:10:44.807Z,6.03
2019-02-19T13:13:48.343Z,5.20
2019-02-19T13:16:51.903Z,6.27
2019-02-19T13:19:55.450Z,7.00
2019-02-19T13:22:59.011Z,7.87
2019-02-19T13:26:02.572Z,6.17
2019-02-19T13:29:06.114Z,7.30
2019-02-19T13:32:09.742Z,6.50
2019-02-19T13:35:13.672Z,6.80
2019-02-19T13:38:17.223Z,4.83
2019-02-19T13:41:21.124Z,6.53
2019-02-19T13:44:24.997Z,6.13
2019-02-19T13:47:29.058Z,5.00
2019-02-19T13:50:32.957Z,6.50
2019-02-19T13:53:46.372Z,5.73
2019-02-19T13:56:49.918Z,7.07
2019-02-19T13:59:53.737Z,4.97
2019-02-19T14:02:57.288Z,5.37
2019-02-19T14:06:01.423Z,5.43
2019-02-19T14:09:05.816Z,6.07
2019-02-19T14:12:09.675Z,7.30
2019-02-19T14:15:31.007Z,5.57
2019-02-19T14:19:06.020Z,5.70
2019-02-19T14:22:27.190Z,4.70
2019-02-19T14:25:44.520Z,5.23
2019-02-19T14:29:10.207Z,6.57
2019-02-19T14:32:35.752Z,4.40
2019-02-19T14:36:01.403Z,5.53
2019-02-19T14:39:24.576Z,6.07
2019-02-19T14:42:56.443Z,4.80
2019-02-19T14:46:18.547Z,4.77
2019-02-19T14:49:47.819Z,5.27
2019-02-19T14:53:09.089Z,5.17
2019-02-19T14:56:22.103Z,4.70
2019-02-19T14:59:46.194Z,7.00
2019-02-19T15:03:03.937Z,5.97
2019-02-19T15:06:25.502Z,5.40
2019-02-19T15:09:47.116Z,6.80
2019-02-19T15:13:09.001Z,6.13
2019-02-19T15:16:39.346Z,4.57
2019-02-19T15:20:03.531Z,4.93
2019-02-19T15:23:28.883Z,5.57
2019-02-19T15:26:52.381Z,5.50
2019-02-19T15:30:18.014Z,4.57
2019-02-19T15:33:32.665Z,5.43
2019-02-19T15:36:54.235Z,5.93
2019-02-19T15:40:16.823Z,4.17
2019-02-19T15:43:33.077Z,4.77
2019-02-19T15:46:52.853Z,4.17
2019-02-19T15:50:14.389Z,5.47
2019-02-19T15:53:38.387Z,5.70
2019-02-19T15:57:03.392Z,4.80
2019-02-19T16:00:25.315Z,4.97
2019-02-19T16:03:33.489Z,3.90
2019-02-19T16:06:58.321Z,5.77
2019-02-19T16:10:15.546Z,3.60
2019-02-19T16:13:27.125Z,4.73
2019-02-19T16:16:45.178Z,5.40
2019-02-19T16:20:10.629Z,3.50
2019-02-19T16:23:23.507Z,4.00
2019-02-19T16:26:36.953Z,4.13
2019-02-19T16:29:48.446Z,5.53
2019-02-19T16:33:05.142Z,4.43
2019-02-19T16:36:18.389Z,5.27
2019-02-19T16:39:40.215Z,3.80
2019-02-19T16:43:01.669Z,3.90
2019-02-19T16:46:13.541Z,3.17
2019-02-19T16:49:40.578Z,3.20
2019-02-19T16:52:54.433Z,4.17
2019-02-19T16:56:13.596Z,3.27
2019-02-19T16:59:48.863Z,4.70
2019-02-19T17:02:56.850Z,3.20
2019-02-19T17:06:22.642Z,5.37
2019-02-19T17:09:48.050Z,4.80
2019-02-19T17:13:10.912Z,4.17
2019-02-19T17:16:28.486Z,4.30
2019-02-19T17:19:49.675Z,5.80
2019-02-19T17:22:58.725Z,5.90
2019-02-19T17:26:09.120Z,3.37
2019-02-19T17:29:19.245Z,4.60
2019-02-19T17:32:40.364Z,5.60
2019-02-19T17:36:06.300Z,6.23
2019-02-19T17:39:27.986Z,3.47
2019-02-19T17:42:45.753Z,5.00
2019-02-19T17:46:14.150Z,5.13
2019-02-19T17:49:40.137Z,3.53
2019-02-19T17:53:05.720Z,3.47
2019-02-19T17:56:28.232Z,3.53
2019-02-19T17:59:49.750Z,4.37
2019-02-19T18:03:12.349Z,2.73
2019-02-19T18:06:31.942Z,4.47
2019-02-19T18:09:52.793Z,2.60
2019-02-19T18:13:14.697Z,4.33
2019-02-19T18:16:27.558Z,3.73
2019-02-19T18:19:31.127Z,6.17
2019-02-19T18:22:34.904Z,3.93
2019-02-19T18:25:38.709Z,4.03
2019-02-19T18:28:42.265Z,4.40
2019-02-19T18:31:45.816Z,6.37
2019-02-19T18:34:49.363Z,4.77
2019-02-19T18:37:52.912Z,4.20
2019-02-19T18:40:56.458Z,5.33
2019-02-19T18:44:00.006Z,3.97
2019-02-19T18:47:03.585Z,5.10
2019-02-19T18:50:07.506Z,4.53
2019-02-19T18:53:11.103Z,6.87
2019-02-19T18:56:14.728Z,7.60
2019-02-19T18:59:18.632Z,4.87
2019-02-19T19:02:22.172Z,6.03
2019-02-19T19:05:25.967Z,5.60
2019-02-19T19:08:29.815Z,3.87
2019-02-19T19:11:33.363Z,5.87
2019-02-19T19:14:36.923Z,4.97
2019-02-19T19:17:40.467Z,5.10
2019-02-19T19:20:44.365Z,4.10
2019-02-19T19:23:47.921Z,5.30
2019-02-19T19:26:51.463Z,5.03
2019-02-19T19:29:55.223Z,4.90
2019-02-19T19:32:59.440Z,7.60
2019-02-19T19:36:02.993Z,3.77
2019-02-19T19:39:07.327Z,4.17
2019-02-19T19:42:10.882Z,4.63
2019-02-19T19:45:14.810Z,6.53
2019-02-19T19:48:18.372Z,5.53
2019-02-19T19:51:22.002Z,5.87
2019-02-19T19:54:25.554Z,5.80
2019-02-19T19:57:29.144Z,5.07
2019-02-19T20:00:33.314Z,5.03
2019-02-19T20:03:37.120Z,4.43
2019-02-19T20:06:40.958Z,5.57
2019-02-19T20:09:45.077Z,4.40
2019-02-19T20:12:48.629Z,5.43
2019-02-19T20:15:52.184Z,5.17
2019-02-19T20:18:55.737Z,4.20
2019-02-19T20:21:59.287Z,4.50
2019-02-19T20:25:02.892Z,4.27
2019-02-19T20:28:06.767Z,6.40
2019-02-19T20:31:10.322Z,5.40
2019-02-19T20:34:14.378Z,5.00
2019-02-19T20:37:17.921Z,5.50
2019-02-19T20:40:21.482Z,4.17
2019-02-19T20:43:25.318Z,5.20
2019-02-19T20:46:28.906Z,5.73
2019-02-19T20:49:32.465Z,6.97
2019-02-19T20:52:36.011Z,6.07
2019-02-19T20:55:39.784Z,6.30
2019-02-19T20:58:43.737Z,5.43
2019-02-19T21:01:47.292Z,5.43
2019-02-19T21:04:50.845Z,5.37
2019-02-19T21:07:54.397Z,7.03
2019-02-19T21:10:58.185Z,5.50
2019-02-19T21:14:01.737Z,9.33
2019-02-19T21:17:05.417Z,8.57
2019-02-19T21:20:09.291Z,10.63
2019-02-19T21:23:12.894Z,8.37
2019-02-19T21:26:16.443Z,6.67
2019-02-19T21:29:19.992Z,8.57
2019-02-19T21:32:23.796Z,10.47
2019-02-19T21:35:27.916Z,59.87
2019-02-19T21:38:31.471Z,31.93
2019-02-19T21:41:35.295Z,50.57
2019-02-19T21:44:38.852Z,138.70
2019-02-19T21:47:42.433Z,117.63
2019-02-19T21:50:45.996Z,113.43
2019-02-19T21:53:49.554Z,93.47
2019-02-19T21:56:53.135Z,77.57
2019-02-19T21:59:56.694Z,64.27
2019-02-19T22:03:00.262Z,59.20
2019-02-19T22:06:03.832Z,53.07
2019-02-19T22:09:07.396Z,48.67
2019-02-19T22:12:11.022Z,48.83
2019-02-19T22:15:14.680Z,44.57
2019-02-19T22:18:18.525Z,42.53
2019-02-19T22:21:33.273Z,41.83
2019-02-19T22:24:37.824Z,42.43
2019-02-19T22:27:41.703Z,41.87
2019-02-19T22:30:45.731Z,41.10
2019-02-19T22:33:49.292Z,140.33
2019-02-19T22:36:53.184Z,100.63
2019-02-19T22:39:57.021Z,197.80
2019-02-19T22:43:00.679Z,125.87
2019-02-19T22:46:04.253Z,217.93
2019-02-19T22:49:07.830Z,199.73
2019-02-19T22:52:12.796Z,172.37
2019-02-19T22:55:31.657Z,160.90
2019-02-19T22:58:35.224Z,143.77
2019-02-19T23:02:01.989Z,135.87
2019-02-19T23:05:06.147Z,114.07
2019-02-19T23:08:10.008Z,107.13
2019-02-19T23:11:13.897Z,98.63
2019-02-19T23:14:17.777Z,88.10
2019-02-19T23:17:21.649Z,87.03
2019-02-19T23:20:25.199Z,77.83
2019-02-19T23:23:29.486Z,79.97
2019-02-19T23:26:33.369Z,71.10
2019-02-19T23:29:37.194Z,73.00
2019-02-19T23:32:40.752Z,72.10
2019-02-19T23:35:55.156Z,68.90
2019-02-19T23:38:58.736Z,68.20
2019-02-19T23:42:02.584Z,67.07
2019-02-19T23:45:06.375Z,64.43
2019-02-19T23:48:10.232Z,64.10
2019-02-19T23:51:13.792Z,58.33
2019-02-19T23:54:17.361Z,59.87
2019-02-19T23:57:20.910Z,60.27
